createdAt,value
2017-10-18T00:00:31.770Z,15.29
2017-10-18T00:01:12.365Z,15.37
2017-10-18T00:01:52.927Z,15.29
2017-10-18T00:02:33.504Z,15.28
2017-10-18T00:03:14.066Z,15.31
2017-10-18T00:03:54.632Z,15.36
2017-10-18T00:04:35.202Z,15.27
2017-10-18T00:05:15.767Z,15.28
2017-10-18T00:05:56.332Z,15.29
2017-10-18T00:06:36.916Z,15.29
2017-10-18T00:07:17.459Z,15.28
2017-10-18T00:07:58.030Z,15.29
2017-10-18T00:08:38.615Z,15.29
2017-10-18T00:09:19.183Z,15.35
2017-10-18T00:09:59.743Z,15.28
2017-10-18T00:10:40.305Z,15.27
2017-10-18T00:11:20.882Z,15.25
2017-10-18T00:12:01.462Z,15.29
2017-10-18T00:12:42.029Z,15.33
2017-10-18T00:13:22.603Z,15.22
2017-10-18T00:14:03.191Z,15.31
2017-10-18T00:14:43.803Z,15.24
2017-10-18T00:15:24.338Z,15.21
2017-10-18T00:16:04.900Z,15.25
2017-10-18T00:16:45.477Z,15.24
2017-10-18T00:17:26.043Z,15.35
2017-10-18T00:18:06.614Z,15.27
2017-10-18T00:18:47.185Z,15.21
2017-10-18T00:19:27.752Z,15.27
2017-10-18T00:20:08.320Z,15.17
2017-10-18T00:20:48.884Z,15.17
2017-10-18T00:21:29.456Z,15.17
2017-10-18T00:22:10.009Z,15.24
2017-10-18T00:22:50.591Z,15.17
2017-10-18T00:23:31.165Z,15.17
2017-10-18T00:24:11.756Z,15.17
2017-10-18T00:24:52.347Z,15.21
2017-10-18T00:25:32.920Z,15.18
2017-10-18T00:26:13.476Z,15.22
2017-10-18T00:26:54.042Z,15.15
2017-10-18T00:27:34.608Z,15.22
2017-10-18T00:28:15.180Z,15.15
2017-10-18T00:28:55.757Z,15.17
2017-10-18T00:29:36.321Z,15.24
2017-10-18T00:30:16.896Z,15.18
2017-10-18T00:30:57.468Z,15.15
2017-10-18T00:31:38.034Z,15.15
2017-10-18T00:32:18.597Z,15.22
2017-10-18T00:32:59.164Z,15.09
2017-10-18T00:33:39.731Z,15.14
2017-10-18T00:34:20.287Z,15.11
2017-10-18T00:35:00.849Z,15.17
2017-10-18T00:35:41.412Z,15.09
2017-10-18T00:36:21.976Z,15.11
2017-10-18T00:37:02.544Z,15.1
2017-10-18T00:37:43.116Z,15.09
2017-10-18T00:38:23.682Z,15.09
2017-10-18T00:39:04.250Z,15.09
2017-10-18T00:39:44.811Z,15.1
2017-10-18T00:40:25.383Z,15.15
2017-10-18T00:41:05.965Z,15.09
2017-10-18T00:41:46.542Z,15.1
2017-10-18T00:42:27.129Z,15.09
2017-10-18T00:43:07.686Z,15.1
2017-10-18T00:43:48.256Z,15.11
2017-10-18T00:44:28.870Z,15.1
2017-10-18T00:45:09.427Z,15.06
2017-10-18T00:45:49.991Z,15.04
2017-10-18T00:46:30.560Z,15.06
2017-10-18T00:47:11.122Z,15.09
2017-10-18T00:47:51.693Z,15.06
2017-10-18T00:48:32.255Z,15.03
2017-10-18T00:49:12.829Z,15.15
2017-10-18T00:49:53.402Z,15.11
2017-10-18T00:50:33.991Z,15.04
2017-10-18T00:51:14.552Z,15.06
2017-10-18T00:51:55.116Z,14.96
2017-10-18T00:52:35.699Z,15.07
2017-10-18T00:53:16.272Z,14.97
2017-10-18T00:53:56.849Z,14.94
2017-10-18T00:54:37.394Z,14.91
2017-10-18T00:55:17.974Z,14.99
2017-10-18T00:55:58.535Z,14.99
2017-10-18T00:56:39.100Z,14.94
2017-10-18T00:57:19.705Z,14.96
2017-10-18T00:58:00.315Z,15.03
2017-10-18T00:58:40.897Z,14.96
2017-10-18T00:59:21.488Z,14.96
2017-10-18T01:00:02.038Z,15
2017-10-18T01:00:42.605Z,14.97
2017-10-18T01:01:23.183Z,14.96
2017-10-18T01:02:03.761Z,14.94
2017-10-18T01:02:44.341Z,14.91
2017-10-18T01:03:24.922Z,14.94
2017-10-18T01:04:05.487Z,14.99
2017-10-18T01:04:46.052Z,15
2017-10-18T01:05:26.688Z,14.99
2017-10-18T01:06:07.251Z,15.02
2017-10-18T01:06:47.815Z,14.97
2017-10-18T01:07:28.372Z,14.91
2017-10-18T01:08:08.939Z,14.88
2017-10-18T01:08:49.515Z,14.89
2017-10-18T01:09:30.101Z,14.91
2017-10-18T01:10:10.639Z,14.91
2017-10-18T01:10:51.203Z,14.86
2017-10-18T01:11:31.772Z,14.86
2017-10-18T01:12:12.338Z,14.91
2017-10-18T01:12:52.894Z,14.91
2017-10-18T01:13:33.462Z,14.91
2017-10-18T01:14:14.032Z,14.94
2017-10-18T01:14:54.601Z,14.82
2017-10-18T01:15:35.171Z,14.96
2017-10-18T01:16:15.732Z,14.91
2017-10-18T01:16:56.300Z,14.91
2017-10-18T01:17:36.870Z,14.89
2017-10-18T01:18:17.434Z,14.94
2017-10-18T01:18:57.989Z,14.91
2017-10-18T01:19:38.564Z,14.82
2017-10-18T01:20:19.129Z,14.91
2017-10-18T01:20:59.698Z,14.88
2017-10-18T01:21:40.261Z,14.73
2017-10-18T01:22:20.825Z,14.88
2017-10-18T01:23:01.395Z,14.89
2017-10-18T01:23:41.960Z,14.86
2017-10-18T01:24:22.519Z,14.92
2017-10-18T01:25:03.086Z,14.86
2017-10-18T01:25:43.664Z,14.88
2017-10-18T01:26:24.249Z,14.81
2017-10-18T01:27:04.813Z,14.79
2017-10-18T01:27:45.376Z,14.79
2017-10-18T01:28:25.961Z,14.84
2017-10-18T01:29:06.513Z,14.82
2017-10-18T01:29:47.080Z,14.79
2017-10-18T01:30:27.670Z,14.79
2017-10-18T01:31:08.240Z,14.84
2017-10-18T01:31:48.819Z,14.73
2017-10-18T01:32:29.408Z,14.82
2017-10-18T01:33:09.978Z,14.82
2017-10-18T01:33:50.538Z,14.7
2017-10-18T01:34:31.117Z,14.69
2017-10-18T01:35:11.715Z,14.68
2017-10-18T01:35:52.292Z,14.69
2017-10-18T01:36:32.856Z,14.69
2017-10-18T01:37:13.437Z,14.69
2017-10-18T01:37:53.989Z,14.66
2017-10-18T01:38:34.608Z,14.66
2017-10-18T01:39:15.197Z,14.68
2017-10-18T01:39:55.764Z,14.69
2017-10-18T01:40:36.368Z,14.77
2017-10-18T01:41:16.966Z,14.73
2017-10-18T01:41:57.543Z,14.68
2017-10-18T01:42:38.132Z,14.66
2017-10-18T01:43:18.703Z,14.66
2017-10-18T01:43:59.272Z,14.72
2017-10-18T01:44:39.841Z,14.66
2017-10-18T01:45:20.404Z,14.73
2017-10-18T01:46:00.986Z,14.66
2017-10-18T01:46:41.556Z,14.73
2017-10-18T01:47:22.126Z,14.66
2017-10-18T01:48:02.707Z,14.66
2017-10-18T01:48:43.267Z,14.55
2017-10-18T01:49:23.834Z,14.68
2017-10-18T01:50:04.388Z,14.7
2017-10-18T01:50:44.954Z,14.68
2017-10-18T01:51:25.519Z,14.63
2017-10-18T01:52:06.073Z,14.65
2017-10-18T01:52:46.669Z,14.7
2017-10-18T01:53:27.233Z,14.69
2017-10-18T01:54:07.807Z,14.7
2017-10-18T01:54:48.359Z,14.69
2017-10-18T01:55:28.948Z,14.7
2017-10-18T01:56:09.529Z,14.66
2017-10-18T01:56:50.096Z,14.72
2017-10-18T01:57:30.651Z,14.65
2017-10-18T01:58:11.209Z,14.65
2017-10-18T01:58:51.781Z,14.65
2017-10-18T01:59:32.351Z,14.68
2017-10-18T02:00:12.948Z,14.73
2017-10-18T02:00:53.524Z,14.69
2017-10-18T02:01:34.083Z,14.68
2017-10-18T02:02:14.647Z,14.65
2017-10-18T02:02:55.207Z,14.6
2017-10-18T02:03:35.779Z,14.6
2017-10-18T02:04:16.326Z,14.55
2017-10-18T02:04:56.904Z,14.59
2017-10-18T02:05:37.471Z,14.6
2017-10-18T02:06:18.041Z,14.63
2017-10-18T02:06:58.608Z,14.55
2017-10-18T02:07:39.230Z,14.58
2017-10-18T02:08:19.796Z,14.55
2017-10-18T02:09:00.365Z,14.54
2017-10-18T02:09:40.925Z,14.48
2017-10-18T02:10:21.524Z,14.51
2017-10-18T02:11:02.083Z,14.48
2017-10-18T02:11:42.648Z,14.47
2017-10-18T02:12:23.221Z,14.45
2017-10-18T02:13:03.791Z,14.5
2017-10-18T02:13:44.362Z,14.66
2017-10-18T02:14:24.923Z,14.48
2017-10-18T02:15:05.499Z,14.59
2017-10-18T02:15:46.066Z,14.6
2017-10-18T02:16:26.632Z,14.41
2017-10-18T02:17:07.206Z,14.54
2017-10-18T02:17:47.764Z,14.55
2017-10-18T02:18:28.330Z,14.5
2017-10-18T02:19:08.894Z,14.51
2017-10-18T02:19:49.458Z,14.53
2017-10-18T02:20:30.022Z,14.55
2017-10-18T02:21:10.586Z,14.5
2017-10-18T02:21:51.153Z,14.54
2017-10-18T02:22:31.717Z,14.5
2017-10-18T02:23:12.284Z,14.53
2017-10-18T02:23:52.857Z,14.59
2017-10-18T02:24:33.419Z,14.59
2017-10-18T02:25:13.988Z,14.5
2017-10-18T02:25:54.552Z,14.58
2017-10-18T02:26:35.118Z,14.51
2017-10-18T02:27:15.685Z,14.48
2017-10-18T02:27:56.257Z,14.54
2017-10-18T02:28:36.812Z,14.58
2017-10-18T02:29:17.372Z,14.5
2017-10-18T02:29:57.946Z,14.53
2017-10-18T02:30:38.513Z,14.51
2017-10-18T02:31:19.083Z,14.51
2017-10-18T02:31:59.649Z,14.65
2017-10-18T02:32:40.226Z,14.6
2017-10-18T02:33:20.797Z,14.5
2017-10-18T02:34:01.391Z,14.48
2017-10-18T02:34:41.960Z,14.47
2017-10-18T02:35:22.517Z,14.45
2017-10-18T02:36:03.106Z,14.48
2017-10-18T02:36:43.668Z,14.51
2017-10-18T02:37:24.286Z,14.48
2017-10-18T02:38:04.875Z,14.51
2017-10-18T02:38:45.448Z,14.48
2017-10-18T02:39:26.019Z,14.54
2017-10-18T02:40:06.580Z,14.5
2017-10-18T02:40:47.149Z,14.53
2017-10-18T02:41:27.721Z,14.5
2017-10-18T02:42:08.289Z,14.51
2017-10-18T02:42:48.859Z,14.53
2017-10-18T02:43:29.432Z,14.5
2017-10-18T02:44:10.013Z,14.53
2017-10-18T02:44:50.592Z,14.51
2017-10-18T02:45:31.126Z,14.53
2017-10-18T02:46:11.696Z,14.55
2017-10-18T02:46:52.256Z,14.53
2017-10-18T02:47:32.834Z,14.47
2017-10-18T02:48:13.388Z,14.5
2017-10-18T02:48:53.972Z,14.47
2017-10-18T02:49:34.545Z,14.51
2017-10-18T02:50:15.110Z,14.48
2017-10-18T02:50:55.689Z,14.53
2017-10-18T02:51:36.259Z,14.54
2017-10-18T02:52:16.822Z,14.54
2017-10-18T02:52:57.401Z,14.45
2017-10-18T02:53:37.957Z,14.47
2017-10-18T02:54:18.521Z,14.47
2017-10-18T02:54:59.083Z,14.5
2017-10-18T02:55:39.650Z,14.48
2017-10-18T02:56:20.211Z,14.58
2017-10-18T02:57:00.768Z,14.5
2017-10-18T02:57:41.339Z,14.54
2017-10-18T02:58:21.912Z,14.58
2017-10-18T02:59:02.491Z,14.51
2017-10-18T02:59:43.057Z,14.51
2017-10-18T03:00:23.632Z,14.55
2017-10-18T03:01:04.213Z,14.5
2017-10-18T03:01:44.774Z,14.53
2017-10-18T03:02:25.325Z,14.47
2017-10-18T03:03:05.892Z,14.5
2017-10-18T03:03:46.450Z,14.53
2017-10-18T03:04:27.020Z,14.53
2017-10-18T03:05:07.590Z,14.53
2017-10-18T03:05:48.149Z,14.47
2017-10-18T03:06:28.704Z,14.58
2017-10-18T03:07:09.273Z,14.55
2017-10-18T03:07:49.829Z,14.53
2017-10-18T03:08:30.399Z,14.51
2017-10-18T03:09:10.968Z,14.58
2017-10-18T03:09:51.531Z,14.5
2017-10-18T03:10:32.115Z,14.59
2017-10-18T03:11:12.710Z,14.5
2017-10-18T03:11:53.275Z,14.5
2017-10-18T03:12:33.841Z,14.53
2017-10-18T03:13:14.407Z,14.55
2017-10-18T03:13:54.979Z,14.47
2017-10-18T03:14:35.562Z,14.47
2017-10-18T03:15:16.131Z,14.59
2017-10-18T03:15:56.687Z,14.41
2017-10-18T03:16:37.261Z,14.55
2017-10-18T03:17:17.848Z,14.59
2017-10-18T03:17:58.412Z,14.53
2017-10-18T03:18:38.977Z,14.59
2017-10-18T03:19:19.546Z,14.55
2017-10-18T03:20:00.111Z,14.47
2017-10-18T03:20:40.666Z,14.5
2017-10-18T03:21:21.239Z,14.51
2017-10-18T03:22:01.795Z,14.5
2017-10-18T03:22:42.383Z,14.58
2017-10-18T03:23:22.987Z,14.44
2017-10-18T03:24:03.554Z,14.47
2017-10-18T03:24:44.135Z,14.36
2017-10-18T03:25:24.712Z,14.43
2017-10-18T03:26:05.273Z,14.45
2017-10-18T03:26:45.875Z,14.51
2017-10-18T03:27:26.440Z,14.58
2017-10-18T03:28:07.048Z,14.53
2017-10-18T03:28:47.646Z,14.53
2017-10-18T03:29:28.208Z,14.53
2017-10-18T03:30:08.779Z,14.54
2017-10-18T03:30:49.388Z,14.36
2017-10-18T03:31:29.977Z,14.47
2017-10-18T03:32:10.538Z,14.47
2017-10-18T03:32:51.120Z,14.37
2017-10-18T03:33:31.684Z,14.37
2017-10-18T03:34:12.264Z,14.37
2017-10-18T03:34:52.833Z,14.36
2017-10-18T03:35:33.401Z,14.41
2017-10-18T03:36:13.998Z,14.41
2017-10-18T03:36:54.561Z,14.36
2017-10-18T03:37:35.136Z,14.43
2017-10-18T03:38:15.703Z,14.37
2017-10-18T03:38:56.276Z,14.4
2017-10-18T03:39:36.836Z,14.4
2017-10-18T03:40:17.413Z,14.36
2017-10-18T03:40:57.968Z,14.4
2017-10-18T03:41:38.541Z,14.33
2017-10-18T03:42:19.103Z,14.29
2017-10-18T03:42:59.679Z,14.29
2017-10-18T03:43:40.256Z,14.32
2017-10-18T03:44:20.859Z,14.3
2017-10-18T03:45:01.413Z,14.35
2017-10-18T03:45:41.982Z,14.3
2017-10-18T03:46:22.560Z,14.37
2017-10-18T03:47:03.125Z,14.29
2017-10-18T03:47:43.682Z,14.35
2017-10-18T03:48:24.274Z,14.29
2017-10-18T03:49:04.838Z,14.22
2017-10-18T03:49:45.405Z,14.29
2017-10-18T03:50:25.970Z,14.26
2017-10-18T03:51:06.537Z,14.25
2017-10-18T03:51:47.100Z,14.29
2017-10-18T03:52:27.678Z,14.22
2017-10-18T03:53:08.246Z,14.33
2017-10-18T03:53:48.823Z,14.28
2017-10-18T03:54:29.391Z,14.32
2017-10-18T03:55:09.980Z,14.25
2017-10-18T03:55:50.564Z,14.35
2017-10-18T03:56:31.150Z,14.29
2017-10-18T03:57:11.736Z,14.33
2017-10-18T03:57:52.297Z,14.29
2017-10-18T03:58:32.872Z,14.29
2017-10-18T03:59:13.445Z,14.18
2017-10-18T03:59:54.080Z,14.2
2017-10-18T04:00:34.666Z,14.15
2017-10-18T04:01:15.238Z,14.22
2017-10-18T04:01:55.805Z,14.18
2017-10-18T04:02:36.385Z,14.18
2017-10-18T04:03:16.958Z,14.2
2017-10-18T04:03:57.660Z,14.18
2017-10-18T04:04:38.338Z,14.26
2017-10-18T04:05:19.039Z,14.2
2017-10-18T04:05:59.673Z,14.22
2017-10-18T04:06:40.241Z,14.18
2017-10-18T04:07:20.816Z,14.18
2017-10-18T04:08:01.392Z,14.17
2017-10-18T04:08:41.982Z,14.18
2017-10-18T04:09:22.564Z,14.2
2017-10-18T04:10:03.136Z,14.15
2017-10-18T04:10:43.696Z,14.18
2017-10-18T04:11:24.267Z,14.22
2017-10-18T04:12:04.839Z,14.1
2017-10-18T04:12:45.418Z,14.1
2017-10-18T04:13:25.981Z,14.08
2017-10-18T04:14:06.542Z,14.05
2017-10-18T04:14:47.109Z,14.08
2017-10-18T04:15:27.689Z,14.05
2017-10-18T04:16:08.257Z,14.03
2017-10-18T04:16:48.817Z,14
2017-10-18T04:17:29.386Z,14.04
2017-10-18T04:18:09.950Z,14.05
2017-10-18T04:18:50.506Z,14.07
2017-10-18T04:19:31.092Z,14
2017-10-18T04:20:11.663Z,14
2017-10-18T04:20:52.225Z,14.03
2017-10-18T04:21:32.782Z,14.04
2017-10-18T04:22:13.348Z,13.99
2017-10-18T04:22:53.914Z,14.07
2017-10-18T04:23:34.505Z,13.96
2017-10-18T04:24:15.063Z,13.99
2017-10-18T04:24:55.634Z,13.97
2017-10-18T04:25:36.202Z,14.04
2017-10-18T04:26:16.767Z,13.99
2017-10-18T04:26:57.329Z,13.99
2017-10-18T04:27:37.892Z,13.99
2017-10-18T04:28:18.459Z,14.1
2017-10-18T04:28:59.023Z,14.1
2017-10-18T04:29:39.586Z,14
2017-10-18T04:30:20.160Z,14.04
2017-10-18T04:31:00.730Z,13.99
2017-10-18T04:31:41.289Z,14.05
2017-10-18T04:32:21.862Z,13.97
2017-10-18T04:33:02.435Z,13.99
2017-10-18T04:33:43.008Z,13.97
2017-10-18T04:34:23.586Z,14
2017-10-18T04:35:04.165Z,13.96
2017-10-18T04:35:44.754Z,14.05
2017-10-18T04:36:25.319Z,13.95
2017-10-18T04:37:05.890Z,13.97
2017-10-18T04:37:46.499Z,13.97
2017-10-18T04:38:27.070Z,13.9
2017-10-18T04:39:07.808Z,13.93
2017-10-18T04:39:48.365Z,13.97
2017-10-18T04:40:28.932Z,13.92
2017-10-18T04:41:09.507Z,14
2017-10-18T04:41:50.074Z,13.92
2017-10-18T04:42:30.633Z,13.95
2017-10-18T04:43:11.201Z,14.05
2017-10-18T04:43:51.772Z,13.96
2017-10-18T04:44:32.338Z,13.92
2017-10-18T04:45:12.908Z,13.99
2017-10-18T04:45:53.468Z,13.87
2017-10-18T04:46:34.034Z,13.87
2017-10-18T04:47:14.613Z,13.87
2017-10-18T04:47:55.198Z,13.87
2017-10-18T04:48:35.793Z,13.93
2017-10-18T04:49:16.359Z,13.89
2017-10-18T04:49:56.909Z,13.97
2017-10-18T04:50:37.496Z,13.89
2017-10-18T04:51:18.078Z,13.92
2017-10-18T04:51:58.641Z,13.9
2017-10-18T04:52:39.211Z,13.87
2017-10-18T04:53:19.782Z,13.9
2017-10-18T04:54:00.358Z,13.95
2017-10-18T04:54:40.929Z,13.95
2017-10-18T04:55:21.497Z,13.9
2017-10-18T04:56:02.092Z,13.93
2017-10-18T04:56:42.661Z,13.87
2017-10-18T04:57:23.239Z,13.86
2017-10-18T04:58:03.799Z,13.86
2017-10-18T04:58:44.375Z,13.92
2017-10-18T04:59:24.939Z,13.9
2017-10-18T05:00:05.507Z,13.9
2017-10-18T05:00:46.086Z,13.9
2017-10-18T05:01:26.655Z,13.89
2017-10-18T05:02:07.241Z,13.85
2017-10-18T05:02:47.814Z,13.87
2017-10-18T05:03:28.427Z,13.86
2017-10-18T05:04:08.993Z,13.89
2017-10-18T05:04:49.559Z,13.9
2017-10-18T05:05:30.127Z,13.83
2017-10-18T05:06:10.698Z,13.86
2017-10-18T05:06:51.274Z,13.9
2017-10-18T05:07:31.841Z,13.93
2017-10-18T05:08:12.437Z,13.89
2017-10-18T05:08:53.026Z,13.9
2017-10-18T05:09:33.584Z,13.95
2017-10-18T05:10:14.168Z,13.9
2017-10-18T05:10:54.744Z,13.9
2017-10-18T05:11:35.309Z,13.85
2017-10-18T05:12:15.874Z,13.95
2017-10-18T05:12:56.442Z,13.93
2017-10-18T05:13:37.012Z,13.85
2017-10-18T05:14:17.572Z,13.87
2017-10-18T05:14:58.140Z,13.9
2017-10-18T05:15:38.713Z,13.87
2017-10-18T05:16:19.289Z,13.9
2017-10-18T05:16:59.854Z,13.9
2017-10-18T05:17:40.418Z,13.87
2017-10-18T05:18:20.967Z,13.9
2017-10-18T05:19:01.531Z,13.86
2017-10-18T05:19:42.102Z,13.89
2017-10-18T05:20:22.670Z,13.87
2017-10-18T05:21:03.238Z,13.85
2017-10-18T05:21:43.810Z,13.78
2017-10-18T05:22:24.395Z,13.77
2017-10-18T05:23:04.957Z,13.83
2017-10-18T05:23:45.527Z,13.83
2017-10-18T05:24:26.092Z,13.85
2017-10-18T05:25:06.666Z,13.78
2017-10-18T05:25:47.245Z,13.83
2017-10-18T05:26:27.823Z,13.85
2017-10-18T05:27:08.387Z,13.81
2017-10-18T05:27:48.985Z,13.81
2017-10-18T05:28:29.545Z,13.79
2017-10-18T05:29:10.119Z,13.79
2017-10-18T05:29:50.685Z,13.79
2017-10-18T05:30:31.265Z,13.87
2017-10-18T05:31:11.821Z,13.81
2017-10-18T05:31:52.401Z,13.86
2017-10-18T05:32:32.991Z,13.85
2017-10-18T05:33:13.560Z,13.77
2017-10-18T05:33:54.145Z,13.77
2017-10-18T05:34:34.715Z,13.9
2017-10-18T05:35:15.350Z,13.93
2017-10-18T05:35:55.936Z,14
2017-10-18T05:36:36.509Z,14.15
2017-10-18T05:37:17.080Z,14.22
2017-10-18T05:37:57.645Z,14.32
2017-10-18T05:38:38.222Z,14.43
2017-10-18T05:39:18.779Z,14.6
2017-10-18T05:39:59.351Z,14.55
2017-10-18T05:40:39.913Z,14.65
2017-10-18T05:41:20.474Z,14.84
2017-10-18T05:42:01.049Z,14.91
2017-10-18T05:42:41.615Z,15
2017-10-18T05:43:22.171Z,14.97
2017-10-18T05:44:02.733Z,15.11
2017-10-18T05:44:43.298Z,15.11
2017-10-18T05:45:23.856Z,15.19
2017-10-18T05:46:04.425Z,15.22
2017-10-18T05:46:45.000Z,15.27
2017-10-18T05:47:25.557Z,15.29
2017-10-18T05:48:06.119Z,15.47
2017-10-18T05:48:46.694Z,15.47
2017-10-18T05:49:27.279Z,15.49
2017-10-18T05:50:07.841Z,15.55
2017-10-18T05:50:48.428Z,15.55
2017-10-18T05:51:28.994Z,15.59
2017-10-18T05:52:09.558Z,15.58
2017-10-18T05:52:50.129Z,15.55
2017-10-18T05:53:30.718Z,15.65
2017-10-18T05:54:11.275Z,15.58
2017-10-18T05:54:51.895Z,15.67
2017-10-18T05:55:32.465Z,15.54
2017-10-18T05:56:13.100Z,15.64
2017-10-18T05:56:54.022Z,15.65
2017-10-18T05:57:34.765Z,15.61
2017-10-18T05:58:15.340Z,15.73
2017-10-18T05:58:55.945Z,15.64
2017-10-18T05:59:36.535Z,15.72
2017-10-18T06:00:17.121Z,15.61
2017-10-18T06:00:57.706Z,15.59
2017-10-18T06:01:38.275Z,15.58
2017-10-18T06:02:18.843Z,15.58
2017-10-18T06:02:59.417Z,15.57
2017-10-18T06:03:40.139Z,15.65
2017-10-18T06:04:20.766Z,15.72
2017-10-18T06:05:01.343Z,15.75
2017-10-18T06:05:41.904Z,15.77
2017-10-18T06:06:22.521Z,15.82
2017-10-18T06:07:03.089Z,15.77
2017-10-18T06:07:43.664Z,15.83
2017-10-18T06:08:24.236Z,15.79
2017-10-18T06:09:04.799Z,15.8
2017-10-18T06:09:45.393Z,15.82
2017-10-18T06:10:25.975Z,15.83
2017-10-18T06:11:06.548Z,15.83
2017-10-18T06:11:47.147Z,15.9
2017-10-18T06:12:27.679Z,15.83
2017-10-18T06:13:08.283Z,15.88
2017-10-18T06:13:48.982Z,15.82
2017-10-18T06:14:29.584Z,15.91
2017-10-18T06:15:10.144Z,15.92
2017-10-18T06:15:50.718Z,16.01
2017-10-18T06:16:31.293Z,15.95
2017-10-18T06:17:11.868Z,16.1
2017-10-18T06:17:52.451Z,16.13
2017-10-18T06:18:33.013Z,16.21
2017-10-18T06:19:13.602Z,16.2
2017-10-18T06:19:54.167Z,16.24
2017-10-18T06:20:34.729Z,16.21
2017-10-18T06:21:15.352Z,16.1
2017-10-18T06:21:55.949Z,16.1
2017-10-18T06:22:36.514Z,16.05
2017-10-18T06:23:17.112Z,16.1
2017-10-18T06:23:57.713Z,15.94
2017-10-18T06:24:38.310Z,15.92
2017-10-18T06:25:18.897Z,15.91
2017-10-18T06:25:59.459Z,15.77
2017-10-18T06:26:40.101Z,15.67
2017-10-18T06:27:20.754Z,15.61
2017-10-18T06:28:01.330Z,15.44
2017-10-18T06:28:41.923Z,15.36
2017-10-18T06:29:22.533Z,15.35
2017-10-18T06:30:03.185Z,15.33
2017-10-18T06:30:44.037Z,15.19
2017-10-18T06:31:24.600Z,15.22
2017-10-18T06:32:05.175Z,15.09
2017-10-18T06:32:45.745Z,15.02
2017-10-18T06:33:26.308Z,15
2017-10-18T06:34:06.881Z,15
2017-10-18T06:34:47.450Z,14.94
2017-10-18T06:35:28.030Z,14.89
2017-10-18T06:36:08.609Z,14.88
2017-10-18T06:36:49.186Z,14.78
2017-10-18T06:37:29.760Z,14.7
2017-10-18T06:39:18.670Z,14.7
2017-10-18T06:39:59.238Z,14.69
2017-10-18T06:40:39.802Z,14.59
2017-10-18T06:41:20.357Z,14.6
2017-10-18T06:42:00.941Z,14.5
2017-10-18T06:42:41.537Z,14.53
2017-10-18T06:43:22.118Z,14.47
2017-10-18T06:44:02.662Z,14.5
2017-10-18T06:44:43.229Z,14.45
2017-10-18T06:45:23.803Z,14.5
2017-10-18T06:46:04.360Z,14.48
2017-10-18T06:46:44.918Z,14.48
2017-10-18T06:47:25.498Z,14.43
2017-10-18T06:48:06.064Z,14.41
2017-10-18T06:48:46.624Z,14.47
2017-10-18T06:49:27.187Z,14.53
2017-10-18T06:50:07.770Z,14.51
2017-10-18T06:50:48.371Z,14.48
2017-10-18T06:51:29.102Z,14.44
2017-10-18T06:52:09.718Z,14.45
2017-10-18T06:52:50.316Z,14.41
2017-10-18T06:53:30.867Z,14.45
2017-10-18T06:54:11.426Z,14.43
2017-10-18T06:54:51.991Z,14.48
2017-10-18T06:55:32.554Z,14.37
2017-10-18T06:56:13.120Z,14.37
2017-10-18T06:56:53.737Z,14.37
2017-10-18T06:57:34.322Z,14.3
2017-10-18T06:58:14.891Z,14.4
2017-10-18T06:58:55.506Z,14.41
2017-10-18T06:59:36.097Z,14.37
2017-10-18T07:00:16.658Z,14.44
2017-10-18T07:00:57.215Z,14.36
2017-10-18T07:01:37.787Z,14.48
2017-10-18T07:02:18.389Z,14.5
2017-10-18T07:02:58.943Z,14.48
2017-10-18T07:03:39.564Z,14.45
2017-10-18T07:04:20.129Z,14.54
2017-10-18T07:05:00.694Z,14.58
2017-10-18T07:05:41.266Z,14.43
2017-10-18T07:06:21.828Z,14.5
2017-10-18T07:07:02.423Z,14.48
2017-10-18T07:07:42.979Z,14.44
2017-10-18T07:08:23.562Z,14.48
2017-10-18T07:09:04.131Z,14.47
2017-10-18T07:09:44.693Z,14.48
2017-10-18T07:10:25.249Z,14.51
2017-10-18T07:11:05.830Z,14.6
2017-10-18T07:11:46.399Z,14.48
2017-10-18T07:12:26.982Z,14.45
2017-10-18T07:13:07.561Z,14.54
2017-10-18T07:13:48.122Z,14.48
2017-10-18T07:14:28.714Z,14.59
2017-10-18T07:15:09.266Z,14.59
2017-10-18T07:15:49.846Z,14.5
2017-10-18T07:16:30.426Z,14.68
2017-10-18T07:17:10.995Z,14.48
2017-10-18T07:17:51.581Z,14.48
2017-10-18T07:18:32.142Z,14.6
2017-10-18T07:19:12.731Z,14.58
2017-10-18T07:19:53.298Z,14.59
2017-10-18T07:20:33.869Z,14.6
2017-10-18T07:21:14.482Z,14.6
2017-10-18T07:21:55.342Z,14.59
2017-10-18T07:22:36.673Z,14.68
2017-10-18T07:23:17.257Z,14.68
2017-10-18T07:23:57.821Z,14.66
2017-10-18T07:24:38.387Z,14.69
2017-10-18T07:25:18.965Z,14.66
2017-10-18T07:25:59.528Z,14.69
2017-10-18T07:26:40.101Z,14.69
2017-10-18T07:27:20.668Z,14.63
2017-10-18T07:28:01.399Z,14.77
2017-10-18T07:28:41.980Z,14.82
2017-10-18T07:29:22.529Z,14.84
2017-10-18T07:30:03.119Z,14.79
2017-10-18T07:30:43.697Z,14.79
2017-10-18T07:31:24.353Z,14.85
2017-10-18T07:32:05.088Z,14.81
2017-10-18T07:32:45.673Z,14.85
2017-10-18T07:33:26.253Z,14.91
2017-10-18T07:34:06.821Z,14.86
2017-10-18T07:34:47.406Z,14.97
2017-10-18T07:35:27.982Z,14.94
2017-10-18T07:36:08.563Z,14.91
2017-10-18T07:36:49.125Z,14.94
2017-10-18T07:37:29.696Z,15.04
2017-10-18T07:38:10.281Z,15.03
2017-10-18T07:38:50.850Z,15.17
2017-10-18T07:39:31.421Z,15.06
2017-10-18T07:40:11.978Z,15.24
2017-10-18T07:40:52.553Z,15.27
2017-10-18T07:41:33.124Z,15.21
2017-10-18T07:42:13.691Z,15.29
2017-10-18T07:42:54.253Z,15.37
2017-10-18T07:43:34.831Z,15.33
2017-10-18T07:44:15.408Z,15.47
2017-10-18T07:44:55.988Z,15.51
2017-10-18T07:45:36.569Z,15.55
2017-10-18T07:46:17.131Z,15.65
2017-10-18T07:46:57.731Z,15.75
2017-10-18T07:47:38.309Z,15.82
2017-10-18T07:48:18.870Z,15.97
2017-10-18T07:48:59.465Z,16
2017-10-18T07:49:40.025Z,16.09
2017-10-18T07:50:20.601Z,16.31
2017-10-18T07:51:01.167Z,16.39
2017-10-18T07:51:41.756Z,16.54
2017-10-18T07:52:22.375Z,16.65
2017-10-18T07:53:02.954Z,16.65
2017-10-18T07:53:43.537Z,16.79
2017-10-18T07:54:24.111Z,16.9
2017-10-18T07:55:04.675Z,16.93
2017-10-18T07:55:45.256Z,17.06
2017-10-18T07:56:25.834Z,17.11
2017-10-18T07:57:06.405Z,17.2
2017-10-18T07:57:46.971Z,17.31
2017-10-18T07:58:27.571Z,17.38
2017-10-18T07:59:08.139Z,17.42
2017-10-18T07:59:48.734Z,17.65
2017-10-18T08:00:29.314Z,17.78
2017-10-18T08:01:09.888Z,17.9
2017-10-18T08:01:50.475Z,18.07
2017-10-18T08:02:31.032Z,18.16
2017-10-18T08:03:11.624Z,18.26
2017-10-18T08:03:52.190Z,18.23
2017-10-18T08:04:32.760Z,18.31
2017-10-18T08:05:13.330Z,18.43
2017-10-18T08:05:53.916Z,18.41
2017-10-18T08:06:34.497Z,18.43
2017-10-18T08:07:15.075Z,18.58
2017-10-18T08:07:55.650Z,18.66
2017-10-18T08:08:36.227Z,18.74
2017-10-18T08:09:16.802Z,18.86
2017-10-18T08:09:57.365Z,18.95
2017-10-18T08:10:37.935Z,18.96
2017-10-18T08:11:18.554Z,19
2017-10-18T08:11:59.130Z,19.02
2017-10-18T08:12:39.702Z,19.15
2017-10-18T08:13:20.291Z,19.22
2017-10-18T08:14:00.856Z,19.29
2017-10-18T08:14:41.427Z,19.3
2017-10-18T08:15:22.011Z,19.37
2017-10-18T08:16:02.578Z,19.34
2017-10-18T08:16:43.168Z,19.51
2017-10-18T08:17:23.785Z,19.55
2017-10-18T08:18:04.353Z,19.59
2017-10-18T08:18:44.934Z,19.63
2017-10-18T08:19:25.544Z,19.63
2017-10-18T08:20:06.102Z,19.67
2017-10-18T08:20:46.663Z,19.67
2017-10-18T08:21:27.240Z,19.73
2017-10-18T08:22:07.812Z,19.76
2017-10-18T08:22:48.389Z,19.74
2017-10-18T08:23:28.992Z,19.73
2017-10-18T08:24:09.605Z,19.69
2017-10-18T08:24:50.195Z,19.84
2017-10-18T08:25:30.764Z,19.89
2017-10-18T08:26:11.339Z,19.92
2017-10-18T08:26:51.917Z,19.95
2017-10-18T08:27:32.482Z,19.86
2017-10-18T08:28:13.070Z,20.02
2017-10-18T08:28:53.655Z,20
2017-10-18T08:29:34.223Z,19.95
2017-10-18T08:30:14.781Z,20.04
2017-10-18T08:30:55.380Z,20.04
2017-10-18T08:31:35.957Z,19.96
2017-10-18T08:32:16.525Z,19.92
2017-10-18T08:32:57.099Z,19.86
2017-10-18T08:33:37.676Z,20.03
2017-10-18T08:34:18.258Z,19.89
2017-10-18T08:34:58.841Z,19.91
2017-10-18T08:35:39.437Z,19.86
2017-10-18T08:36:20.018Z,19.74
2017-10-18T08:37:00.589Z,19.69
2017-10-18T08:37:41.174Z,19.63
2017-10-18T08:38:21.752Z,19.56
2017-10-18T08:39:02.332Z,19.55
2017-10-18T08:39:42.928Z,19.48
2017-10-18T08:40:23.500Z,19.37
2017-10-18T08:41:04.082Z,19.33
2017-10-18T08:41:44.660Z,19.26
2017-10-18T08:42:25.234Z,19.14
2017-10-18T08:43:05.807Z,19.19
2017-10-18T08:43:46.392Z,19.14
2017-10-18T08:44:26.987Z,19
2017-10-18T08:45:07.551Z,19.02
2017-10-18T08:45:48.148Z,18.98
2017-10-18T08:46:28.715Z,18.89
2017-10-18T08:47:09.292Z,18.93